Terminal Aerodrome Forecast
Issued by NWS

Home | Current Version | Previous Version | Text Only | Print | Product List | Glossary On
Versions: 1 2 3 4 5 6 7 8 9 10 11 12 13 14 15 16 17 18
830
FTUS41 KPBZ 272323
TAFLBE
TAF
KLBE 272323Z 2800/2824 21006KT P6SM BKN110
     FM280900 18004KT 3SM -SHRA BR OVC040
     FM281100 18004KT 2SM -SHRA BR OVC020
     FM281500 25004KT 2SM -SHRA BR OVC008
     FM282100 32008KT P6SM OVC010=

USA.gov is the U.S. government's official web portal to all federal, state and local government web resources and services.